Time;durP1;ratioP1;P1;durP2;ratioP2;P2;SDS_P1;SDS_P2;PMS_P1;PMS_P2;Temp;Humidity;BMP_temperature;BMP_pressure;BME280_temperature;BME280_humidity;BME280_pressure;Samples;Min_cycle;Max_cycle;Signal;HPM_P1;HPM_P2
2022/12/13 00:00:09;;;;;;;;;7.00;7.00;;;;;;;;5230577;28;9533;-75
2022/12/13 00:02:44;;;;;;;;;3.20;3.20;;;;;;;;5249542;28;8811;-76
2022/12/13 00:05:34;;;;;;;;;3.00;3.00;;;;;;;;5247656;28;8779;-73
2022/12/13 00:08:05;;;;;;;;;5.20;5.20;;;;;;;;5230750;28;8819;-72
2022/12/13 00:10:36;;;;;;;;;7.20;7.20;;;;;;;;5236357;28;8829;-73
2022/12/13 00:13:07;;;;;;;;;3.00;3.00;;;;;;;;5232356;28;9534;-73
2022/12/13 00:15:39;;;;;;;;;4.80;4.80;;;;;;;;5230534;28;8811;-73
2022/12/13 00:18:29;;;;;;;;;2.20;2.20;;;;;;;;5261642;28;8775;-76
2022/12/13 00:21:03;;;;;;;;;4.80;4.80;;;;;;;;5230181;28;8783;-74
2022/12/13 00:23:34;;;;;;;;;5.60;5.60;;;;;;;;5245570;28;8833;-74
2022/12/13 00:26:07;;;;;;;;;0.80;0.80;;;;;;;;5230144;28;8775;-74
2022/12/13 00:28:39;;;;;;;;;7.80;7.80;;;;;;;;5229961;28;8849;-76
2022/12/13 00:31:10;;;;;;;;;1.80;1.80;;;;;;;;5246688;28;8786;-76
2022/12/13 00:33:41;;;;;;;;;4.00;4.00;;;;;;;;5246577;28;8807;-74
2022/12/13 00:36:13;;;;;;;;;1.40;1.40;;;;;;;;5246641;28;9525;-74
2022/12/13 00:38:44;;;;;;;;;9.80;9.80;;;;;;;;5246666;28;8788;-74
2022/12/13 00:41:18;;;;;;;;;7.40;7.40;;;;;;;;5247609;28;8827;-74
2022/12/13 00:43:50;;;;;;;;;2.20;2.20;;;;;;;;5232868;28;8781;-74
2022/12/13 00:46:21;;;;;;;;;3.00;3.00;;;;;;;;5267260;28;8879;-74
2022/12/13 00:48:54;;;;;;;;;1.80;1.80;;;;;;;;5250790;28;8781;-74
2022/12/13 00:51:27;;;;;;;;;6.20;5.60;;;;;;;;5250132;28;8800;-74
2022/12/13 00:53:59;;;;;;;;;0.00;0.00;;;;;;;;5267533;28;8787;-78
2022/12/13 00:56:31;;;;;;;;;1.00;1.00;;;;;;;;5234358;28;8804;-78
2022/12/13 00:59:20;;;;;;;;;3.80;3.80;;;;;;;;5242707;28;8768;-78
2022/12/13 01:01:52;;;;;;;;;4.00;4.00;;;;;;;;5246278;28;8771;-77
2022/12/13 01:04:23;;;;;;;;;11.60;11.60;;;;;;;;5228895;28;8797;-77
2022/12/13 01:06:54;;;;;;;;;6.20;5.40;;;;;;;;5262819;28;9538;-77
2022/12/13 01:09:30;;;;;;;;;5.60;5.60;;;;;;;;5263334;28;8802;-77
2022/12/13 01:12:04;;;;;;;;;6.80;6.80;;;;;;;;5229951;28;8817;-75
2022/12/13 01:14:35;;;;;;;;;6.60;6.60;;;;;;;;5247017;28;8811;-75
2022/12/13 01:17:06;;;;;;;;;12.80;12.80;;;;;;;;5262436;28;8772;-75
2022/12/13 01:19:38;;;;;;;;;6.80;6.80;;;;;;;;5251577;28;9665;-75
2022/12/13 01:22:10;;;;;;;;;6.00;5.20;;;;;;;;5245685;28;8921;-74
2022/12/13 01:24:41;;;;;;;;;6.00;6.00;;;;;;;;5248253;28;9550;-74
2022/12/13 01:27:31;;;;;;;;;6.40;6.40;;;;;;;;5279616;28;8846;-73
2022/12/13 01:30:02;;;;;;;;;7.40;7.40;;;;;;;;5260780;28;9509;-73
2022/12/13 01:32:34;;;;;;;;;3.60;3.40;;;;;;;;5257651;28;8804;-76
2022/12/13 01:35:05;;;;;;;;;4.40;4.40;;;;;;;;5251606;28;8843;-76
2022/12/13 01:37:55;;;;;;;;;12.40;12.40;;;;;;;;5266885;28;8792;-74
2022/12/13 01:40:26;;;;;;;;;1.00;1.00;;;;;;;;5267518;28;8806;-74
2022/12/13 01:43:16;;;;;;;;;6.00;6.00;;;;;;;;5266568;28;9621;-74
2022/12/13 01:45:47;;;;;;;;;6.00;6.00;;;;;;;;5249396;28;9598;-75
2022/12/13 01:48:22;;;;;;;;;8.60;7.20;;;;;;;;5267297;28;8788;-75
2022/12/13 01:50:56;;;;;;;;;15.60;15.20;;;;;;;;5232515;28;8822;-73
2022/12/13 01:53:29;;;;;;;;;15.00;14.60;;;;;;;;5249125;28;8820;-74
2022/12/13 01:56:03;;;;;;;;;15.00;15.00;;;;;;;;5266141;28;8857;-74
2022/12/13 01:58:35;;;;;;;;;4.40;4.40;;;;;;;;5219549;28;8795;-74
2022/12/13 02:01:06;;;;;;;;;13.80;13.00;;;;;;;;5258510;28;8809;-75
2022/12/13 02:03:39;;;;;;;;;22.40;22.40;;;;;;;;5255862;28;8925;-72
2022/12/13 02:06:14;;;;;;;;;15.60;15.40;;;;;;;;5211942;28;8791;-72
2022/12/13 02:08:46;;;;;;;;;55.00;48.60;;;;;;;;5211924;28;9565;-72
2022/12/13 02:11:38;;;;;;;;;19.20;17.20;;;;;;;;5230509;28;8846;-69
2022/12/13 02:14:10;;;;;;;;;22.00;21.60;;;;;;;;5236173;28;8909;-70
2022/12/13 02:17:05;;;;;;;;;8.60;8.60;;;;;;;;5245303;28;8787;-70
2022/12/13 02:19:42;;;;;;;;;13.60;13.60;;;;;;;;5245018;28;8795;-70
2022/12/13 02:22:43;;;;;;;;;7.80;7.80;;;;;;;;5244342;28;8821;-70
2022/12/13 02:25:40;;;;;;;;;12.60;10.00;;;;;;;;5244819;28;8814;-72
2022/12/13 02:28:40;;;;;;;;;57.80;49.40;;;;;;;;5208480;28;8771;-71
2022/12/13 02:31:15;;;;;;;;;4.80;4.80;;;;;;;;5228078;28;8783;-68
2022/12/13 02:34:08;;;;;;;;;4.40;4.40;;;;;;;;5244762;28;8849;-72
2022/12/13 02:36:39;;;;;;;;;10.80;10.40;;;;;;;;5228189;28;8856;-70
2022/12/13 02:39:16;;;;;;;;;11.50;11.50;;;;;;;;5230876;28;8803;-72
2022/12/13 02:41:49;;;;;;;;;7.20;7.20;;;;;;;;5227834;28;12260;-70
2022/12/13 02:44:23;;;;;;;;;10.20;9.60;;;;;;;;5227071;28;8775;-69
2022/12/13 02:47:01;;;;;;;;;8.60;8.60;;;;;;;;5227777;28;8918;-69
2022/12/13 02:49:34;;;;;;;;;13.40;11.80;;;;;;;;5236990;28;9499;-68
2022/12/13 02:52:07;;;;;;;;;7.20;7.20;;;;;;;;5227432;28;9275;-70
2022/12/13 02:54:38;;;;;;;;;9.60;9.60;;;;;;;;5227917;28;8791;-69
2022/12/13 02:57:28;;;;;;;;;3.00;3.00;;;;;;;;5230296;28;8795;-70
2022/12/13 03:00:06;;;;;;;;;5.20;5.20;;;;;;;;5228056;28;8801;-69
2022/12/13 03:07:01;;;;;;;;;0.60;0.60;;;;;;;;5224471;28;8906;-70
2022/12/13 03:09:56;;;;;;;;;2.00;1.80;;;;;;;;5243203;28;8783;-70
2022/12/13 03:15:28;;;;;;;;;7.40;7.40;;;;;;;;5248179;28;8794;-69
2022/12/13 03:18:04;;;;;;;;;6.20;6.20;;;;;;;;5242006;28;8795;-68
2022/12/13 03:20:35;;;;;;;;;6.80;6.80;;;;;;;;5232039;28;8789;-71
2022/12/13 03:23:09;;;;;;;;;7.00;7.00;;;;;;;;5250590;28;8772;-70
2022/12/13 03:25:40;;;;;;;;;3.40;3.40;;;;;;;;5233643;28;8809;-70
2022/12/13 03:28:12;;;;;;;;;6.00;6.00;;;;;;;;5267813;28;8804;-70
2022/12/13 03:30:43;;;;;;;;;11.00;10.60;;;;;;;;5234576;28;8769;-70
2022/12/13 03:33:48;;;;;;;;;9.00;9.00;;;;;;;;5244809;28;8830;-70
2022/12/13 03:36:20;;;;;;;;;9.20;9.00;;;;;;;;5249268;28;8779;-72
2022/12/13 03:38:52;;;;;;;;;9.20;8.60;;;;;;;;5231631;28;8802;-71
2022/12/13 03:41:31;;;;;;;;;11.60;11.60;;;;;;;;5247197;28;8787;-69
2022/12/13 03:44:04;;;;;;;;;12.40;11.20;;;;;;;;5214820;28;8809;-69
2022/12/13 03:46:35;;;;;;;;;6.00;6.00;;;;;;;;5231030;28;8791;-68
2022/12/13 03:49:06;;;;;;;;;9.80;9.80;;;;;;;;5230598;28;8799;-69
2022/12/13 03:51:38;;;;;;;;;6.00;6.00;;;;;;;;5246947;28;8823;-69
2022/12/13 03:54:09;;;;;;;;;9.00;9.00;;;;;;;;5230465;28;8787;-69
2022/12/13 03:56:40;;;;;;;;;0.40;0.40;;;;;;;;5262550;28;8881;-69
2022/12/13 03:59:11;;;;;;;;;8.20;8.20;;;;;;;;5269466;28;8784;-69
2022/12/13 04:01:45;;;;;;;;;9.60;9.40;;;;;;;;5247208;28;8846;-69
2022/12/13 04:04:16;;;;;;;;;8.60;8.60;;;;;;;;5247661;28;8879;-68
2022/12/13 04:06:47;;;;;;;;;6.00;6.00;;;;;;;;5248857;28;8779;-69
2022/12/13 04:09:19;;;;;;;;;10.60;9.60;;;;;;;;5230932;28;8775;-71
2022/12/13 04:14:39;;;;;;;;;5.20;5.20;;;;;;;;5230992;28;8791;-70
2022/12/13 04:17:11;;;;;;;;;2.60;2.60;;;;;;;;5230887;28;8871;-70
2022/12/13 04:19:43;;;;;;;;;3.00;3.00;;;;;;;;5249634;28;8874;-69
2022/12/13 04:22:15;;;;;;;;;1.80;1.80;;;;;;;;5250968;28;8788;-69
2022/12/13 04:24:47;;;;;;;;;1.80;1.80;;;;;;;;5235071;28;8804;-69
2022/12/13 04:27:19;;;;;;;;;0.60;0.60;;;;;;;;5234948;28;8818;-70
2022/12/13 04:30:00;;;;;;;;;4.00;4.00;;;;;;;;5236698;28;8792;-70
2022/12/13 04:32:52;;;;;;;;;5.60;5.20;;;;;;;;5256181;28;8954;-70
2022/12/13 04:35:43;;;;;;;;;4.40;3.40;;;;;;;;5240416;28;9549;-70
2022/12/13 04:38:19;;;;;;;;;12.80;12.80;;;;;;;;5231779;28;8783;-70
2022/12/13 04:41:13;;;;;;;;;13.20;11.40;;;;;;;;5265480;28;8926;-71
2022/12/13 04:44:06;;;;;;;;;14.00;14.00;;;;;;;;5248478;28;9552;-71
2022/12/13 04:46:43;;;;;;;;;14.20;14.20;;;;;;;;5230017;28;8824;-69
2022/12/13 04:49:15;;;;;;;;;9.00;8.40;;;;;;;;5213335;28;8779;-70
2022/12/13 04:51:47;;;;;;;;;7.40;7.40;;;;;;;;5229359;28;8843;-70
2022/12/13 04:54:19;;;;;;;;;9.40;9.40;;;;;;;;5230083;28;8775;-69
2022/12/13 04:56:50;;;;;;;;;6.20;6.20;;;;;;;;5212738;28;8904;-69
2022/12/13 04:59:22;;;;;;;;;6.60;6.60;;;;;;;;5245588;28;8795;-69
2022/12/13 05:01:54;;;;;;;;;7.00;6.20;;;;;;;;5245268;28;8877;-69
2022/12/13 05:04:26;;;;;;;;;6.80;5.80;;;;;;;;5245714;28;8791;-69
2022/12/13 05:07:16;;;;;;;;;4.80;4.80;;;;;;;;5246316;28;8795;-69
2022/12/13 05:09:47;;;;;;;;;4.40;4.40;;;;;;;;5229658;28;8783;-69
2022/12/13 05:12:19;;;;;;;;;16.80;16.00;;;;;;;;5245883;28;8803;-70
2022/12/13 05:15:09;;;;;;;;;15.00;15.00;;;;;;;;5231901;28;8902;-70
2022/12/13 05:17:40;;;;;;;;;10.60;10.60;;;;;;;;5229017;28;8799;-69
2022/12/13 05:20:12;;;;;;;;;8.60;8.60;;;;;;;;5245247;28;8794;-70
2022/12/13 05:22:43;;;;;;;;;15.40;15.40;;;;;;;;5245823;28;8779;-69
2022/12/13 05:25:35;;;;;;;;;17.80;17.80;;;;;;;;5245622;28;8848;-67
2022/12/13 05:28:07;;;;;;;;;14.20;14.20;;;;;;;;5245344;28;8772;-68
2022/12/13 05:30:39;;;;;;;;;12.80;12.80;;;;;;;;5262044;28;8816;-68
2022/12/13 05:33:28;;;;;;;;;11.60;11.60;;;;;;;;5245610;28;8849;-69
2022/12/13 05:35:59;;;;;;;;;6.00;6.00;;;;;;;;5249588;28;9677;-70
2022/12/13 05:38:30;;;;;;;;;11.00;10.60;;;;;;;;5252009;28;8918;-69
2022/12/13 05:41:23;;;;;;;;;4.60;4.40;;;;;;;;5243631;28;8787;-68
2022/12/13 05:43:55;;;;;;;;;8.60;8.60;;;;;;;;5226402;28;8791;-69
2022/12/13 05:46:26;;;;;;;;;17.20;13.80;;;;;;;;5243658;28;9573;-68
2022/12/13 05:48:57;;;;;;;;;14.20;13.40;;;;;;;;5227219;28;8914;-71
2022/12/13 05:51:28;;;;;;;;;8.20;8.20;;;;;;;;5226474;28;8819;-69
2022/12/13 05:54:02;;;;;;;;;6.00;6.00;;;;;;;;5262822;28;8955;-69
2022/12/13 05:56:33;;;;;;;;;7.00;7.00;;;;;;;;5247034;28;8796;-69
2022/12/13 05:59:04;;;;;;;;;2.80;2.60;;;;;;;;5227490;28;8799;-68
2022/12/13 06:01:38;;;;;;;;;7.40;7.40;;;;;;;;5210967;28;8806;-69
2022/12/13 06:04:11;;;;;;;;;5.60;4.20;;;;;;;;5243341;28;9552;-69
2022/12/13 06:06:44;;;;;;;;;15.60;15.60;;;;;;;;5226487;28;8811;-69
2022/12/13 06:09:15;;;;;;;;;9.80;9.80;;;;;;;;5226561;28;8799;-69
2022/12/13 06:12:09;;;;;;;;;8.20;8.20;;;;;;;;5229749;28;8896;-68
2022/12/13 06:14:40;;;;;;;;;11.20;10.40;;;;;;;;5226690;28;8857;-69
2022/12/13 06:17:23;;;;;;;;;7.00;6.20;;;;;;;;5231983;28;8816;-69
2022/12/13 06:19:56;;;;;;;;;41.80;38.20;;;;;;;;5228779;28;8822;-69
2022/12/13 06:22:28;;;;;;;;;12.40;12.40;;;;;;;;5228739;28;8824;-69
2022/12/13 06:25:00;;;;;;;;;5.00;5.00;;;;;;;;5244505;28;9536;-69
2022/12/13 06:27:32;;;;;;;;;7.80;7.80;;;;;;;;5245854;28;8856;-68
2022/12/13 06:30:03;;;;;;;;;9.00;9.00;;;;;;;;5244552;28;8910;-68
2022/12/13 06:32:34;;;;;;;;;13.40;13.40;;;;;;;;5230171;28;8814;-68
2022/12/13 06:35:06;;;;;;;;;22.00;17.20;;;;;;;;5261512;28;8811;-68
2022/12/13 06:37:38;;;;;;;;;18.20;18.20;;;;;;;;5244731;28;9532;-68
2022/12/13 06:40:09;;;;;;;;;20.75;19.25;;;;;;;;5227945;28;8779;-68
2022/12/13 06:42:59;;;;;;;;;19.80;19.40;;;;;;;;5244601;28;8896;-68
2022/12/13 06:45:49;;;;;;;;;18.20;18.00;;;;;;;;5247244;28;8819;-69
2022/12/13 06:48:20;;;;;;;;;15.00;15.00;;;;;;;;5251898;28;9610;-68
2022/12/13 06:50:52;;;;;;;;;8.20;8.20;;;;;;;;5252237;28;8851;-68
2022/12/13 06:53:23;;;;;;;;;18.20;17.60;;;;;;;;5269392;28;8824;-68
2022/12/13 06:55:55;;;;;;;;;13.40;11.00;;;;;;;;5236003;28;9616;-67
2022/12/13 06:58:26;;;;;;;;;14.80;12.80;;;;;;;;5235863;28;8801;-68
2022/12/13 07:01:03;;;;;;;;;14.20;13.40;;;;;;;;5252442;28;8781;-67
2022/12/13 07:03:35;;;;;;;;;18.00;18.00;;;;;;;;5249779;28;9530;-67
2022/12/13 07:06:07;;;;;;;;;18.60;18.20;;;;;;;;5215043;28;8807;-67
2022/12/13 07:08:40;;;;;;;;;7.80;7.80;;;;;;;;5231326;28;8803;-67
2022/12/13 07:11:13;;;;;;;;;5.20;4.40;;;;;;;;5248307;28;8790;-67
2022/12/13 07:13:45;;;;;;;;;9.80;9.80;;;;;;;;5231434;28;8864;-67
2022/12/13 07:16:16;;;;;;;;;8.80;8.80;;;;;;;;5231420;28;8811;-68
2022/12/13 07:19:07;;;;;;;;;15.40;15.40;;;;;;;;5234188;28;8814;-69
2022/12/13 07:21:38;;;;;;;;;6.60;6.60;;;;;;;;5263662;28;9506;-66
2022/12/13 07:24:10;;;;;;;;;4.00;4.00;;;;;;;;5231352;28;8768;-69
2022/12/13 07:26:41;;;;;;;;;15.00;14.20;;;;;;;;5215083;28;8825;-67
2022/12/13 07:29:14;;;;;;;;;11.40;11.40;;;;;;;;5214727;28;8863;-69
2022/12/13 07:31:45;;;;;;;;;9.60;9.60;;;;;;;;5214666;28;8795;-68
2022/12/13 07:34:17;;;;;;;;;8.80;8.80;;;;;;;;5231165;28;8803;-68
2022/12/13 07:36:49;;;;;;;;;10.00;7.00;;;;;;;;5214622;28;8775;-69
2022/12/13 07:39:24;;;;;;;;;11.00;11.00;;;;;;;;5247525;28;8787;-68
2022/12/13 07:41:56;;;;;;;;;2.60;2.60;;;;;;;;5242791;28;8793;-69
2022/12/13 07:44:28;;;;;;;;;7.20;7.20;;;;;;;;5251855;28;8839;-70
2022/12/13 07:47:00;;;;;;;;;6.80;6.80;;;;;;;;5266546;28;8799;-68
2022/12/13 07:49:31;;;;;;;;;6.00;6.00;;;;;;;;5252033;28;8772;-68
2022/12/13 07:52:03;;;;;;;;;8.80;8.80;;;;;;;;5234707;28;8828;-68
2022/12/13 07:54:35;;;;;;;;;7.40;7.40;;;;;;;;5235309;28;8768;-69
2022/12/13 07:57:07;;;;;;;;;5.60;5.60;;;;;;;;5229918;28;8851;-68
2022/12/13 07:59:58;;;;;;;;;7.00;7.00;;;;;;;;5266120;28;8818;-68
2022/12/13 08:02:29;;;;;;;;;9.20;9.20;;;;;;;;5266910;28;8795;-68
2022/12/13 08:05:00;;;;;;;;;5.60;5.60;;;;;;;;5251321;28;8840;-69
2022/12/13 08:07:31;;;;;;;;;7.80;7.80;;;;;;;;5228239;28;8783;-69
2022/12/13 08:10:21;;;;;;;;;3.20;3.20;;;;;;;;5257270;28;8984;-69
2022/12/13 08:12:52;;;;;;;;;7.80;7.80;;;;;;;;5268148;28;8832;-68
2022/12/13 08:15:24;;;;;;;;;4.00;4.00;;;;;;;;5238983;28;8791;-70
2022/12/13 08:18:14;;;;;;;;;7.00;7.00;;;;;;;;5233426;28;8778;-69
2022/12/13 08:20:45;;;;;;;;;5.60;4.80;;;;;;;;5230358;28;8756;-70
2022/12/13 08:23:16;;;;;;;;;5.40;5.40;;;;;;;;5230263;28;8799;-70
2022/12/13 08:25:53;;;;;;;;;4.00;4.00;;;;;;;;5246834;28;8818;-70
2022/12/13 08:28:43;;;;;;;;;7.40;7.00;;;;;;;;5258779;28;8858;-70
2022/12/13 08:31:32;;;;;;;;;7.40;7.40;;;;;;;;5239678;28;8764;-70
2022/12/13 08:34:03;;;;;;;;;11.00;10.00;;;;;;;;5267561;28;8776;-69
2022/12/13 08:36:34;;;;;;;;;8.40;8.40;;;;;;;;5234086;28;8845;-69
2022/12/13 08:39:05;;;;;;;;;6.50;6.50;;;;;;;;5250587;28;8764;-69
2022/12/13 08:41:36;;;;;;;;;4.00;4.00;;;;;;;;5234037;28;8815;-70
2022/12/13 08:44:07;;;;;;;;;4.00;4.00;;;;;;;;5250556;28;8765;-70
2022/12/13 08:46:38;;;;;;;;;2.50;2.00;;;;;;;;5233781;28;8788;-70
2022/12/13 08:49:10;;;;;;;;;3.00;3.00;;;;;;;;5250382;28;8806;-70
2022/12/13 08:51:40;;;;;;;;;9.80;9.00;;;;;;;;5233932;28;8796;-70
2022/12/13 08:54:32;;;;;;;;;9.40;9.40;;;;;;;;5267744;28;8889;-70
2022/12/13 08:57:03;;;;;;;;;9.20;9.20;;;;;;;;5267023;28;8902;-69
2022/12/13 08:59:53;;;;;;;;;1.00;1.00;;;;;;;;5267177;28;8802;-68
2022/12/13 09:02:25;;;;;;;;;7.00;7.00;;;;;;;;5250527;28;8803;-69
2022/12/13 09:04:56;;;;;;;;;5.20;5.20;;;;;;;;5268166;28;8831;-69
2022/12/13 09:07:28;;;;;;;;;3.25;3.25;;;;;;;;5250107;28;8765;-68
2022/12/13 09:09:59;;;;;;;;;9.60;9.60;;;;;;;;5265741;28;11432;-69
2022/12/13 09:12:30;;;;;;;;;7.00;7.00;;;;;;;;5249680;28;8832;-69
2022/12/13 09:15:00;;;;;;;;;11.50;10.00;;;;;;;;5249926;28;11409;-69
2022/12/13 09:17:32;;;;;;;;;3.00;3.00;;;;;;;;5266618;28;8923;-68
2022/12/13 09:20:04;;;;;;;;;9.40;9.40;;;;;;;;5266863;28;10090;-70
2022/12/13 09:22:35;;;;;;;;;10.00;10.00;;;;;;;;5266369;28;8804;-68
2022/12/13 09:25:06;;;;;;;;;12.00;12.00;;;;;;;;5249723;28;8919;-69
2022/12/13 09:27:37;;;;;;;;;9.00;9.00;;;;;;;;5232948;28;9547;-68
2022/12/13 09:30:27;;;;;;;;;6.80;6.80;;;;;;;;5252442;28;8808;-69
2022/12/13 09:32:58;;;;;;;;;8.40;8.20;;;;;;;;5232909;28;9519;-69
2022/12/13 09:35:47;;;;;;;;;3.00;3.00;;;;;;;;5266742;28;8963;-70
2022/12/13 09:38:18;;;;;;;;;3.75;3.25;;;;;;;;5266399;28;9014;-72
2022/12/13 09:40:51;;;;;;;;;6.80;6.80;;;;;;;;5266334;28;10450;-70
2022/12/13 09:43:24;;;;;;;;;8.60;8.60;;;;;;;;5267285;28;9549;-71
2022/12/13 09:45:57;;;;;;;;;6.00;6.00;;;;;;;;5249567;28;8820;-69
2022/12/13 09:48:47;;;;;;;;;3.80;3.60;;;;;;;;5266268;28;8812;-68
2022/12/13 09:51:18;;;;;;;;;3.80;3.80;;;;;;;;5267224;28;8819;-70
2022/12/13 09:53:51;;;;;;;;;6.40;6.40;;;;;;;;5267079;28;9511;-68
2022/12/13 09:56:25;;;;;;;;;6.60;6.60;;;;;;;;5232727;28;8801;-69
2022/12/13 09:58:56;;;;;;;;;18.80;18.00;;;;;;;;5267491;28;8772;-69
2022/12/13 10:01:45;;;;;;;;;14.80;14.80;;;;;;;;5267191;28;8842;-69
2022/12/13 10:04:35;;;;;;;;;7.00;7.00;;;;;;;;5266029;28;8904;-69
2022/12/13 10:07:24;;;;;;;;;9.00;9.00;;;;;;;;5266172;28;8839;-68
2022/12/13 10:10:00;;;;;;;;;9.80;9.00;;;;;;;;5249079;28;9535;-68
2022/12/13 10:12:32;;;;;;;;;3.80;3.60;;;;;;;;5265686;28;8816;-69
2022/12/13 10:15:03;;;;;;;;;18.60;17.20;;;;;;;;5249410;28;8841;-69
2022/12/13 10:17:37;;;;;;;;;12.20;12.20;;;;;;;;5248980;28;8789;-68
2022/12/13 10:20:15;;;;;;;;;10.40;10.40;;;;;;;;5250100;28;8787;-69
2022/12/13 10:22:46;;;;;;;;;15.60;14.20;;;;;;;;5253378;28;8838;-69
2022/12/13 10:25:37;;;;;;;;;9.20;9.20;;;;;;;;5270041;28;8806;-68
2022/12/13 10:28:31;;;;;;;;;9.00;9.00;;;;;;;;5271570;28;8788;-69
2022/12/13 10:31:02;;;;;;;;;13.40;12.80;;;;;;;;5269964;28;8768;-68
2022/12/13 10:33:56;;;;;;;;;7.00;6.40;;;;;;;;5270267;28;8816;-70
2022/12/13 10:36:31;;;;;;;;;9.60;9.40;;;;;;;;5253064;28;8765;-69
2022/12/13 10:39:03;;;;;;;;;9.20;9.20;;;;;;;;5236560;28;9503;-70
2022/12/13 10:41:35;;;;;;;;;9.00;9.00;;;;;;;;5270985;28;8773;-69
2022/12/13 10:44:06;;;;;;;;;12.00;11.20;;;;;;;;5252803;28;8857;-69
2022/12/13 10:46:39;;;;;;;;;12.60;12.40;;;;;;;;5252814;28;8834;-69
2022/12/13 10:49:21;;;;;;;;;16.40;16.40;;;;;;;;5270402;28;8793;-70
2022/12/13 10:51:53;;;;;;;;;9.40;9.40;;;;;;;;5252190;28;8955;-70
2022/12/13 10:54:24;;;;;;;;;11.60;10.80;;;;;;;;5252421;28;8785;-69
2022/12/13 10:56:59;;;;;;;;;11.20;11.20;;;;;;;;5269205;28;8809;-69
2022/12/13 10:59:29;;;;;;;;;18.80;15.80;;;;;;;;5269443;28;8768;-69
2022/12/13 11:02:19;;;;;;;;;17.25;17.25;;;;;;;;5269716;28;8780;-69
2022/12/13 11:04:50;;;;;;;;;14.00;11.80;;;;;;;;5252718;28;11514;-70
2022/12/13 11:07:23;;;;;;;;;16.40;15.20;;;;;;;;5269514;28;9530;-69
2022/12/13 11:10:18;;;;;;;;;18.80;15.00;;;;;;;;5270664;28;8765;-69
2022/12/13 11:12:50;;;;;;;;;9.60;9.60;;;;;;;;5261755;28;8840;-68
2022/12/13 11:15:24;;;;;;;;;9.20;9.20;;;;;;;;5231777;28;8799;-68
2022/12/13 11:18:04;;;;;;;;;7.80;7.80;;;;;;;;5231673;28;8988;-68
2022/12/13 11:20:35;;;;;;;;;23.60;22.40;;;;;;;;5214988;28;8771;-68
2022/12/13 11:23:27;;;;;;;;;0.00;0.00;;;;;;;;5230205;28;9502;-71
2022/12/13 11:26:18;;;;;;;;;14.80;12.40;;;;;;;;5243627;28;8929;-70
2022/12/13 11:28:48;;;;;;;;;18.80;18.80;;;;;;;;5229541;28;8782;-70
2022/12/13 11:31:19;;;;;;;;;8.25;8.25;;;;;;;;5210982;28;9522;-71
2022/12/13 11:34:27;;;;;;;;;11.60;10.60;;;;;;;;5245891;28;10971;-69
2022/12/13 11:36:58;;;;;;;;;6.20;4.40;;;;;;;;5235370;28;8799;-69
2022/12/13 11:39:51;;;;;;;;;9.60;9.20;;;;;;;;5245284;28;8806;-70
2022/12/13 11:42:22;;;;;;;;;9.40;9.40;;;;;;;;5262646;28;8863;-70
2022/12/13 11:45:02;;;;;;;;;11.00;9.80;;;;;;;;5250121;28;8784;-69
2022/12/13 11:47:45;;;;;;;;;12.00;12.00;;;;;;;;5266656;28;8796;-70
2022/12/13 11:50:35;;;;;;;;;9.80;9.80;;;;;;;;5264784;28;8793;-69
2022/12/13 11:53:26;;;;;;;;;10.20;10.20;;;;;;;;5229298;28;8935;-68
2022/12/13 11:55:56;;;;;;;;;13.20;13.20;;;;;;;;5212509;28;9544;-68
2022/12/13 11:58:35;;;;;;;;;12.00;11.00;;;;;;;;5228984;28;8815;-69
2022/12/13 12:01:38;;;;;;;;;13.80;13.80;;;;;;;;5250439;28;8799;-69
2022/12/13 12:04:15;;;;;;;;;6.20;6.20;;;;;;;;5267663;28;8811;-69
2022/12/13 12:06:55;;;;;;;;;17.60;16.80;;;;;;;;5230341;28;8800;-70
2022/12/13 12:09:27;;;;;;;;;18.00;18.00;;;;;;;;5227478;28;8775;-69
2022/12/13 12:12:05;;;;;;;;;34.00;30.60;;;;;;;;5231025;28;8822;-68
2022/12/13 12:15:00;;;;;;;;;15.40;15.40;;;;;;;;5247063;28;8778;-70
2022/12/13 12:17:32;;;;;;;;;27.40;27.40;;;;;;;;5263679;28;8802;-68
2022/12/13 12:20:05;;;;;;;;;8.80;7.40;;;;;;;;5230225;28;8872;-68
2022/12/13 12:22:42;;;;;;;;;9.00;9.00;;;;;;;;5246545;28;8805;-68
2022/12/13 12:25:44;;;;;;;;;6.60;5.60;;;;;;;;5247752;28;8783;-68
2022/12/13 12:28:15;;;;;;;;;4.00;4.00;;;;;;;;5246959;28;8799;-68
2022/12/13 12:30:58;;;;;;;;;42.75;42.00;;;;;;;;5246559;28;8783;-69
2022/12/13 12:33:49;;;;;;;;;44.20;40.00;;;;;;;;5224620;28;8842;-68
2022/12/13 12:36:38;;;;;;;;;32.00;27.80;;;;;;;;5247468;28;8779;-68
2022/12/13 12:39:12;;;;;;;;;14.80;14.20;;;;;;;;5263178;28;8783;-68
2022/12/13 12:41:52;;;;;;;;;21.20;18.60;;;;;;;;5246312;28;8771;-69
2022/12/13 12:44:30;;;;;;;;;19.60;18.40;;;;;;;;5229658;28;9513;-68
2022/12/13 12:47:24;;;;;;;;;40.60;39.80;;;;;;;;5245047;28;9513;-69
2022/12/13 12:50:01;;;;;;;;;15.00;14.80;;;;;;;;5176718;28;8904;-68
2022/12/13 12:52:59;;;;;;;;;15.20;13.40;;;;;;;;5246079;28;8864;-70
2022/12/13 12:55:40;;;;;;;;;4.20;3.80;;;;;;;;5229669;28;8841;-68
2022/12/13 12:58:30;;;;;;;;;16.20;13.40;;;;;;;;5246541;28;8810;-68
2022/12/13 13:01:09;;;;;;;;;19.00;16.80;;;;;;;;5229418;28;8775;-68
2022/12/13 13:03:41;;;;;;;;;19.60;19.60;;;;;;;;5246673;28;9458;-68
2022/12/13 13:06:39;;;;;;;;;18.20;18.20;;;;;;;;5247482;28;8795;-68
2022/12/13 13:09:29;;;;;;;;;6.00;6.00;;;;;;;;5246051;28;8767;-68
2022/12/13 13:15:31;;;;;;;;;18.40;18.40;;;;;;;;5239917;28;8789;-68
2022/12/13 13:18:02;;;;;;;;;14.20;14.20;;;;;;;;5247258;28;9450;-69
2022/12/13 13:20:34;;;;;;;;;13.60;13.60;;;;;;;;5244864;28;8793;-68
2022/12/13 13:23:18;;;;;;;;;14.80;14.80;;;;;;;;5245612;28;8810;-68
2022/12/13 13:26:08;;;;;;;;;15.80;14.60;;;;;;;;5250686;28;8996;-69
2022/12/13 13:28:39;;;;;;;;;19.80;19.80;;;;;;;;5248662;28;8815;-69
2022/12/13 13:31:10;;;;;;;;;17.75;17.75;;;;;;;;5264813;28;8805;-68
2022/12/13 13:33:48;;;;;;;;;11.25;11.25;;;;;;;;5248812;28;11511;-67
2022/12/13 13:36:46;;;;;;;;;39.40;33.00;;;;;;;;5249234;28;8789;-68
2022/12/13 13:39:18;;;;;;;;;21.80;21.40;;;;;;;;5263306;28;8860;-68
2022/12/13 13:42:07;;;;;;;;;25.60;24.60;;;;;;;;5249480;28;9641;-68
2022/12/13 13:44:44;;;;;;;;;22.60;21.80;;;;;;;;5245356;28;8861;-69
2022/12/13 13:47:19;;;;;;;;;23.40;20.20;;;;;;;;5228206;28;8779;-68
2022/12/13 13:50:02;;;;;;;;;19.80;16.40;;;;;;;;5251517;28;8780;-68
2022/12/13 13:52:43;;;;;;;;;20.80;19.80;;;;;;;;5265500;28;8816;-68
2022/12/13 13:55:33;;;;;;;;;23.80;23.60;;;;;;;;5231865;28;8780;-68
2022/12/13 13:58:14;;;;;;;;;16.00;16.00;;;;;;;;5248486;28;8795;-69
2022/12/13 14:00:57;;;;;;;;;15.00;12.60;;;;;;;;5248899;28;8795;-67
2022/12/13 14:03:39;;;;;;;;;14.00;10.80;;;;;;;;5249093;28;8808;-69
2022/12/13 14:06:29;;;;;;;;;14.60;13.80;;;;;;;;5244482;28;8806;-66
2022/12/13 14:08:59;;;;;;;;;17.20;15.80;;;;;;;;5246437;28;8791;-67
2022/12/13 14:11:36;;;;;;;;;105.67;78.00;;;;;;;;5244653;28;8783;-70
2022/12/13 14:14:34;;;;;;;;;30.60;30.60;;;;;;;;5246911;28;12298;-67
2022/12/13 14:17:11;;;;;;;;;18.40;18.40;;;;;;;;5245027;28;8780;-68
2022/12/13 14:19:53;;;;;;;;;15.80;15.80;;;;;;;;5244040;28;8803;-67
2022/12/13 14:22:34;;;;;;;;;5.20;5.20;;;;;;;;5235046;28;8824;-67
2022/12/13 14:25:24;;;;;;;;;15.00;15.00;;;;;;;;5258996;28;8781;-67
2022/12/13 14:27:57;;;;;;;;;12.40;12.40;;;;;;;;5276257;28;9499;-67
2022/12/13 14:30:28;;;;;;;;;15.80;14.80;;;;;;;;5269663;28;8807;-68
2022/12/13 14:32:59;;;;;;;;;10.00;10.00;;;;;;;;5248549;28;8808;-68
2022/12/13 14:35:32;;;;;;;;;7.25;7.25;;;;;;;;5246421;28;8779;-69
2022/12/13 14:38:04;;;;;;;;;5.60;5.60;;;;;;;;5247144;28;11445;-67
2022/12/13 14:40:36;;;;;;;;;14.40;14.20;;;;;;;;5227798;28;8818;-67
2022/12/13 14:43:20;;;;;;;;;8.60;7.00;;;;;;;;5254249;28;9530;-67
2022/12/13 14:45:53;;;;;;;;;6.00;6.00;;;;;;;;5235019;28;8802;-67
2022/12/13 14:48:24;;;;;;;;;10.20;8.60;;;;;;;;5246814;28;8813;-67
2022/12/13 14:50:55;;;;;;;;;76.25;58.25;;;;;;;;5248249;28;8808;-68
2022/12/13 14:53:40;;;;;;;;;11.20;11.20;;;;;;;;5246355;28;8804;-68
2022/12/13 14:56:12;;;;;;;;;7.80;7.80;;;;;;;;5228202;28;8819;-68
2022/12/13 14:58:54;;;;;;;;;15.00;15.00;;;;;;;;5243743;28;8791;-68
2022/12/13 15:01:35;;;;;;;;;12.00;10.00;;;;;;;;5257455;28;8796;-68
2022/12/13 15:04:16;;;;;;;;;6.20;6.20;;;;;;;;5262974;28;8865;-67
2022/12/13 15:07:05;;;;;;;;;11.60;11.60;;;;;;;;5266012;28;8784;-68
2022/12/13 15:09:38;;;;;;;;;13.40;13.40;;;;;;;;5232614;28;9531;-68
2022/12/13 15:12:14;;;;;;;;;15.60;15.20;;;;;;;;5250857;28;8826;-68
2022/12/13 15:14:49;;;;;;;;;3.00;1.80;;;;;;;;5232822;28;8783;-67
2022/12/13 15:17:30;;;;;;;;;23.00;22.00;;;;;;;;5212912;28;8779;-69
2022/12/13 15:20:21;;;;;;;;;28.60;27.40;;;;;;;;5245470;28;9518;-69
2022/12/13 15:23:13;;;;;;;;;15.60;15.60;;;;;;;;5214697;28;8827;-70
2022/12/13 15:26:07;;;;;;;;;12.60;12.40;;;;;;;;5260682;28;8929;-70
2022/12/13 15:28:39;;;;;;;;;15.00;13.80;;;;;;;;5241517;28;10254;-68
2022/12/13 15:31:15;;;;;;;;;17.40;17.00;;;;;;;;5213197;28;8787;-70
2022/12/13 15:33:47;;;;;;;;;19.00;18.20;;;;;;;;5246722;28;8827;-68
2022/12/13 15:36:25;;;;;;;;;15.25;15.25;;;;;;;;5245905;28;8810;-68
2022/12/13 15:39:15;;;;;;;;;12.60;12.60;;;;;;;;5245209;28;11647;-70
2022/12/13 15:42:13;;;;;;;;;6.40;6.40;;;;;;;;5213035;28;8823;-70
2022/12/13 15:44:52;;;;;;;;;100.75;76.25;;;;;;;;5221508;28;8810;-69
2022/12/13 15:47:46;;;;;;;;;30.00;25.40;;;;;;;;5247723;28;8775;-69
2022/12/13 15:50:47;;;;;;;;;15.80;15.00;;;;;;;;5247841;28;8813;-70
2022/12/13 15:53:27;;;;;;;;;13.00;13.00;;;;;;;;5210152;28;8848;-68
2022/12/13 15:56:22;;;;;;;;;16.40;14.60;;;;;;;;5248201;28;8799;-68